East Moriches, New York
Current Conditions -  °F | °C
As of 1:56 AM on Sunday 26 Oct 2014 (Local Time) from KHWV Reporting Station
Overcast Overcast  
Wind Chill: 59°   Ceiling: 10000
Heat Index: 59°   Visibility: 10mi
Dew Point: 47°   Wind: 9mph
Humidity: 64%   Direction: 290°WNW
Pressure: 29.55"   Gusts: NA
Location:  40.81°N, 72.76°W
Report Text: KHWV 260556Z AUTO 29008KT 10SM FEW060 OVC100 15/08 A2955 RMK AO2 SLP006 T01500083 10167 20150 55016 TSNO
Loading
Personal Weather Stations






























Interactive Weather Map
Tropical Storm Tracking
New forecast layout! Learn more

10-Day Weather Forecast

Advertisements
Track Severe Weather on mobile